createdAt,value
2023-01-19T00:00:54.615Z,33.25
2023-01-19T00:03:22.991Z,30.67
2023-01-19T00:05:50.231Z,37.13
2023-01-19T00:08:17.708Z,37.97
2023-01-19T00:10:47.863Z,32.67
2023-01-19T00:13:15.618Z,34.72
2023-01-19T00:15:43.068Z,32.97
2023-01-19T00:18:11.136Z,33.63
2023-01-19T00:20:40.352Z,32.10
2023-01-19T00:23:07.764Z,32.85
2023-01-19T00:25:35.337Z,32.58
2023-01-19T00:28:02.330Z,32.45
2023-01-19T00:30:29.493Z,35.15
2023-01-19T00:32:56.821Z,33.88
2023-01-19T00:35:23.882Z,34.70
2023-01-19T00:37:52.231Z,33.80
2023-01-19T00:40:19.387Z,35.85
2023-01-19T00:42:46.340Z,30.58
2023-01-19T00:45:15.214Z,30.25
2023-01-19T00:47:42.529Z,31.23
2023-01-19T00:50:11.306Z,31.88
2023-01-19T00:52:38.583Z,32.53
2023-01-19T00:55:09.405Z,32.92
2023-01-19T00:57:36.561Z,29.73
2023-01-19T01:00:04.364Z,31.08
2023-01-19T01:02:31.448Z,31.15
2023-01-19T01:04:58.464Z,34.85
2023-01-19T01:07:25.390Z,32.25
2023-01-19T01:09:52.337Z,30.77
2023-01-19T01:12:20.928Z,33.97
2023-01-19T01:14:47.981Z,33.17
2023-01-19T01:17:15.552Z,30.42
2023-01-19T01:19:42.493Z,33.92
2023-01-19T01:22:10.187Z,33.35
2023-01-19T01:24:37.150Z,28.98
2023-01-19T01:27:04.268Z,30.15
2023-01-19T01:29:32.582Z,34.33
2023-01-19T01:31:59.572Z,32.72
2023-01-19T01:34:26.561Z,31.42
2023-01-19T01:36:53.532Z,31.27
2023-01-19T01:39:20.599Z,32.90
2023-01-19T01:41:47.541Z,31.63
2023-01-19T01:44:48.920Z,30.20
2023-01-19T01:47:21.205Z,34.30
2023-01-19T01:49:48.572Z,30.20
2023-01-19T01:52:16.432Z,27.90
2023-01-19T01:54:43.934Z,31.00
2023-01-19T01:57:12.212Z,28.55
2023-01-19T01:59:45.121Z,29.83
2023-01-19T02:02:17.471Z,30.58
2023-01-19T02:04:49.042Z,31.45
2023-01-19T02:07:21.420Z,30.55
2023-01-19T02:09:48.747Z,28.90
2023-01-19T02:12:16.278Z,31.17
2023-01-19T02:14:43.287Z,29.60
2023-01-19T02:17:10.211Z,33.78
2023-01-19T02:19:42.387Z,31.17
2023-01-19T02:22:14.809Z,28.23
2023-01-19T02:24:43.489Z,33.25
2023-01-19T02:27:12.058Z,29.83
2023-01-19T02:29:40.119Z,32.85
2023-01-19T02:32:07.263Z,31.33
2023-01-19T02:34:35.011Z,34.80
2023-01-19T02:37:06.021Z,29.55
2023-01-19T02:39:36.518Z,33.97
2023-01-19T02:42:09.732Z,33.72
2023-01-19T02:44:38.285Z,33.13
2023-01-19T02:47:05.635Z,35.97
2023-01-19T02:49:32.604Z,30.98
2023-01-19T02:52:00.052Z,34.05
2023-01-19T02:54:36.924Z,33.17
2023-01-19T02:57:23.943Z,28.85
2023-01-19T03:00:05.691Z,32.03
2023-01-19T03:02:39.307Z,30.35
2023-01-19T03:05:19.647Z,29.98
2023-01-19T03:07:54.475Z,30.63
2023-01-19T03:10:30.712Z,30.35
2023-01-19T03:13:04.116Z,34.90
2023-01-19T03:15:35.169Z,33.25
2023-01-19T03:18:03.098Z,30.20
2023-01-19T03:20:30.084Z,36.22
2023-01-19T03:23:02.293Z,31.33
2023-01-19T03:25:33.370Z,32.70
2023-01-19T03:28:03.420Z,32.42
2023-01-19T03:30:35.040Z,29.38
2023-01-19T03:33:06.092Z,28.77
2023-01-19T03:35:36.711Z,29.98
2023-01-19T03:38:08.985Z,34.22
2023-01-19T03:40:37.065Z,37.00
2023-01-19T03:43:06.337Z,32.25
2023-01-19T03:45:36.826Z,32.22
2023-01-19T03:48:05.082Z,35.35
2023-01-19T03:50:32.252Z,32.47
2023-01-19T03:53:06.567Z,36.72
2023-01-19T03:55:33.789Z,31.65
2023-01-19T03:58:00.762Z,34.75
2023-01-19T04:00:29.385Z,36.88
2023-01-19T04:02:56.484Z,37.55
2023-01-19T04:05:24.172Z,34.08
2023-01-19T04:07:52.124Z,36.28
2023-01-19T04:10:19.865Z,35.97
2023-01-19T04:12:47.103Z,37.67
2023-01-19T04:15:14.062Z,34.58
2023-01-19T04:17:42.405Z,42.17
2023-01-19T04:20:10.270Z,44.17
2023-01-19T04:22:37.227Z,41.88
2023-01-19T04:25:04.526Z,37.05
2023-01-19T04:27:31.462Z,41.53
2023-01-19T04:29:58.390Z,46.95
2023-01-19T04:32:25.333Z,44.88
2023-01-19T04:34:53.666Z,45.67
2023-01-19T04:37:20.689Z,46.85
2023-01-19T04:39:47.798Z,46.55
2023-01-19T04:42:14.792Z,44.33
2023-01-19T04:44:41.730Z,41.40
2023-01-19T04:47:08.678Z,44.45
2023-01-19T04:49:35.623Z,46.35
2023-01-19T04:52:04.110Z,47.95
2023-01-19T04:54:31.277Z,46.55
2023-01-19T04:56:58.298Z,51.15
2023-01-19T04:59:25.271Z,48.63
2023-01-19T05:01:52.243Z,49.47
2023-01-19T05:04:19.148Z,46.67
2023-01-19T05:06:46.116Z,48.85
2023-01-19T05:09:14.536Z,45.58
2023-01-19T05:11:41.527Z,46.55
2023-01-19T05:14:08.451Z,47.38
2023-01-19T05:16:35.664Z,42.00
2023-01-19T05:19:02.613Z,42.70
2023-01-19T05:21:29.569Z,41.42
2023-01-19T05:23:56.466Z,41.17
2023-01-19T05:26:24.749Z,42.22
2023-01-19T05:28:51.674Z,46.78
2023-01-19T05:31:19.612Z,44.00
2023-01-19T05:33:46.785Z,44.28
2023-01-19T05:36:13.728Z,45.83
2023-01-19T05:38:40.777Z,44.08
2023-01-19T05:41:07.732Z,40.22
2023-01-19T05:43:36.152Z,39.75
2023-01-19T05:46:04.191Z,42.55
2023-01-19T05:48:31.242Z,41.55
2023-01-19T05:50:58.822Z,41.85
2023-01-19T05:53:26.326Z,39.45
2023-01-19T05:55:53.558Z,42.95
2023-01-19T05:58:20.505Z,38.95
2023-01-19T06:00:49.276Z,39.05
2023-01-19T06:03:16.314Z,39.85
2023-01-19T06:05:43.264Z,37.22
2023-01-19T06:08:10.223Z,41.08
2023-01-19T06:10:37.170Z,37.15
2023-01-19T06:13:04.171Z,41.95
2023-01-19T06:15:31.157Z,44.05
2023-01-19T06:17:59.465Z,58.40
2023-01-19T06:20:26.410Z,50.92
2023-01-19T06:22:56.305Z,44.72
2023-01-19T06:25:23.434Z,52.40
2023-01-19T06:27:50.467Z,44.25
2023-01-19T06:30:18.232Z,47.80
2023-01-19T06:32:45.302Z,52.08
2023-01-19T06:35:13.945Z,40.60
2023-01-19T06:37:41.808Z,48.50
2023-01-19T06:40:09.963Z,48.08
2023-01-19T06:42:36.944Z,44.63
2023-01-19T06:45:04.209Z,43.60
2023-01-19T06:47:31.181Z,43.70
2023-01-19T06:49:58.051Z,47.38
2023-01-19T06:52:26.418Z,50.00
2023-01-19T06:54:53.477Z,46.28
2023-01-19T06:57:22.396Z,59.17
2023-01-19T06:59:49.390Z,51.45
2023-01-19T07:02:27.570Z,48.30
2023-01-19T07:04:55.371Z,47.90
2023-01-19T07:07:22.350Z,45.65
2023-01-19T07:09:53.739Z,61.45
2023-01-19T07:12:21.435Z,47.45
2023-01-19T07:14:48.837Z,51.25
2023-01-19T07:17:16.071Z,52.95
2023-01-19T07:19:43.139Z,55.92
2023-01-19T07:22:10.400Z,50.92
2023-01-19T07:24:37.371Z,53.67
2023-01-19T07:27:05.751Z,53.65
2023-01-19T07:29:32.774Z,53.90
2023-01-19T07:31:59.902Z,51.95
2023-01-19T07:34:26.851Z,51.33
2023-01-19T07:36:55.281Z,51.53
2023-01-19T07:39:22.185Z,47.95
2023-01-19T07:41:49.422Z,43.05
2023-01-19T07:44:17.928Z,61.42
2023-01-19T07:46:44.916Z,47.80
2023-01-19T07:49:11.932Z,44.30
2023-01-19T07:51:38.883Z,34.53
2023-01-19T07:54:08.783Z,47.72
2023-01-19T07:56:36.158Z,59.67
2023-01-19T07:59:03.379Z,57.45
2023-01-19T08:01:32.032Z,46.17
2023-01-19T08:03:59.063Z,75.57
2023-01-19T08:06:32.557Z,45.63
2023-01-19T08:08:59.516Z,56.72
2023-01-19T08:11:26.455Z,47.65
2023-01-19T08:13:53.414Z,51.30
2023-01-19T08:16:21.468Z,49.38
2023-01-19T08:18:49.987Z,58.60
2023-01-19T08:21:17.024Z,51.60
2023-01-19T08:23:44.007Z,48.20
2023-01-19T08:26:21.179Z,48.47
2023-01-19T08:28:48.133Z,46.90
2023-01-19T08:31:21.063Z,50.90
2023-01-19T08:33:51.039Z,54.90
2023-01-19T08:36:18.141Z,55.25
2023-01-19T08:38:45.783Z,58.40
2023-01-19T08:41:13.194Z,54.83
2023-01-19T08:43:40.145Z,51.00
2023-01-19T08:46:07.125Z,57.28
2023-01-19T08:48:34.193Z,47.75
2023-01-19T08:51:02.575Z,41.60
2023-01-19T08:53:29.465Z,58.97
2023-01-19T08:55:57.380Z,58.50
2023-01-19T08:58:24.535Z,60.75
2023-01-19T09:00:51.598Z,53.25
2023-01-19T09:03:19.666Z,50.33
2023-01-19T09:05:46.705Z,43.22
2023-01-19T09:08:15.720Z,68.10
2023-01-19T09:10:46.023Z,59.83
2023-01-19T09:13:13.618Z,49.22
2023-01-19T09:15:42.013Z,53.67
2023-01-19T09:18:11.170Z,58.05
2023-01-19T09:20:38.173Z,53.08
2023-01-19T09:23:05.215Z,52.08
2023-01-19T09:25:33.615Z,53.70
2023-01-19T09:28:01.012Z,53.03
2023-01-19T09:30:28.462Z,45.72
2023-01-19T09:32:55.466Z,46.42
2023-01-19T09:35:22.588Z,46.33
2023-01-19T09:37:49.507Z,48.95
2023-01-19T09:40:19.902Z,45.20
2023-01-19T09:42:52.087Z,51.13
2023-01-19T09:45:27.359Z,44.53
2023-01-19T09:47:55.604Z,50.78
2023-01-19T09:50:28.494Z,35.10
2023-01-19T09:52:58.745Z,46.72
2023-01-19T09:55:27.848Z,42.80
2023-01-19T09:57:56.201Z,45.60
2023-01-19T10:00:23.658Z,47.92
2023-01-19T10:02:57.723Z,38.60
2023-01-19T10:05:30.440Z,53.13
2023-01-19T10:08:17.121Z,38.88
2023-01-19T10:10:48.182Z,69.88
2023-01-19T10:13:34.301Z,46.53
2023-01-19T10:16:26.107Z,60.95
2023-01-19T10:18:56.824Z,40.63
2023-01-19T10:21:27.553Z,41.85
2023-01-19T10:23:58.732Z,42.75
2023-01-19T10:26:27.721Z,50.80
2023-01-19T10:29:05.175Z,47.72
2023-01-19T10:31:34.046Z,44.08
2023-01-19T10:34:01.142Z,44.17
2023-01-19T10:36:34.223Z,54.97
2023-01-19T10:39:03.213Z,51.33
2023-01-19T10:41:40.439Z,59.67
2023-01-19T10:44:09.748Z,37.78
2023-01-19T10:46:42.932Z,43.47
2023-01-19T10:49:24.855Z,37.55
2023-01-19T10:51:52.101Z,41.15
2023-01-19T10:54:20.578Z,40.47
2023-01-19T10:56:53.359Z,49.20
2023-01-19T10:59:36.770Z,45.95
2023-01-19T11:02:16.480Z,43.50
2023-01-19T11:04:44.205Z,41.40
2023-01-19T11:07:15.520Z,40.83
2023-01-19T11:09:42.745Z,43.72
2023-01-19T11:12:17.604Z,38.58
2023-01-19T11:14:46.988Z,43.33
2023-01-19T11:17:22.981Z,39.13
2023-01-19T11:19:59.341Z,34.80
2023-01-19T11:22:30.058Z,36.97
2023-01-19T11:25:02.170Z,36.60
2023-01-19T11:27:31.714Z,32.13
2023-01-19T11:30:06.094Z,37.30
2023-01-19T11:32:33.392Z,36.38
2023-01-19T11:35:00.417Z,28.90
2023-01-19T11:37:30.881Z,34.80
2023-01-19T11:39:59.096Z,31.02
2023-01-19T11:42:28.464Z,30.10
2023-01-19T11:45:04.727Z,34.28
2023-01-19T11:47:38.328Z,31.05
2023-01-19T11:50:12.423Z,34.60
2023-01-19T11:52:45.002Z,25.53
2023-01-19T11:55:21.403Z,35.40
2023-01-19T11:57:50.699Z,32.45
2023-01-19T12:00:25.940Z,29.90
2023-01-19T12:05:22.730Z,31.98
2023-01-19T12:07:51.571Z,36.38
2023-01-19T12:10:24.813Z,32.85
2023-01-19T12:12:52.585Z,29.50
2023-01-19T12:15:26.577Z,31.42
2023-01-19T12:17:57.428Z,23.17
2023-01-19T12:20:29.087Z,27.27
2023-01-19T12:23:07.080Z,37.03
2023-01-19T12:25:45.518Z,33.30
2023-01-19T12:28:15.339Z,30.13
2023-01-19T12:30:44.406Z,31.02
2023-01-19T12:33:22.394Z,29.98
2023-01-19T12:35:57.592Z,31.45
2023-01-19T12:38:46.345Z,27.80
2023-01-19T12:41:18.928Z,31.40
2023-01-19T12:43:46.435Z,27.83
2023-01-19T12:46:27.305Z,32.83
2023-01-19T12:48:54.812Z,25.00
2023-01-19T12:51:25.555Z,31.90
2023-01-19T12:53:55.206Z,28.00
2023-01-19T12:56:29.426Z,28.38
2023-01-19T12:58:56.516Z,23.73
2023-01-19T13:01:25.080Z,27.52
2023-01-19T13:04:01.220Z,28.90
2023-01-19T13:07:05.352Z,23.42
2023-01-19T13:09:33.205Z,28.35
2023-01-19T13:12:27.373Z,23.20
2023-01-19T13:15:28.132Z,26.20
2023-01-19T13:17:56.985Z,24.88
2023-01-19T13:20:27.341Z,20.40
2023-01-19T13:23:16.676Z,26.25
2023-01-19T13:25:50.818Z,28.52
2023-01-19T13:28:19.524Z,27.80
2023-01-19T13:30:55.663Z,24.67
2023-01-19T13:33:27.086Z,26.70
2023-01-19T13:35:57.007Z,27.83
2023-01-19T13:38:24.984Z,25.48
2023-01-19T13:40:54.700Z,27.77
2023-01-19T13:43:27.424Z,26.08
2023-01-19T13:45:55.217Z,22.90
2023-01-19T13:48:24.804Z,24.83
2023-01-19T13:51:05.013Z,25.00
2023-01-19T13:53:32.540Z,25.42
2023-01-19T13:56:15.706Z,27.40
2023-01-19T13:58:43.215Z,24.20
2023-01-19T14:01:21.717Z,26.25
2023-01-19T14:03:50.684Z,27.83
2023-01-19T14:06:23.382Z,26.77
2023-01-19T14:09:13.482Z,21.55
2023-01-19T14:11:40.516Z,24.77
2023-01-19T14:14:27.349Z,29.90
2023-01-19T14:16:54.575Z,25.05
2023-01-19T14:19:23.366Z,28.52
2023-01-19T14:22:00.082Z,28.08
2023-01-19T14:24:27.474Z,27.10
2023-01-19T14:27:06.643Z,25.42
2023-01-19T14:29:34.686Z,34.17
2023-01-19T14:32:14.058Z,28.10
2023-01-19T14:34:43.840Z,29.52
2023-01-19T14:37:19.868Z,29.42
2023-01-19T14:39:49.298Z,32.25
2023-01-19T14:42:23.435Z,30.08
2023-01-19T14:44:52.328Z,29.77
2023-01-19T14:47:27.658Z,32.25
2023-01-19T14:49:57.797Z,32.45
2023-01-19T14:52:28.437Z,40.95
2023-01-19T14:54:57.725Z,34.13
2023-01-19T14:57:24.700Z,40.67
2023-01-19T14:59:51.608Z,33.30
2023-01-19T15:02:18.819Z,34.15
2023-01-19T15:04:46.584Z,39.30
2023-01-19T15:07:17.727Z,64.53
2023-01-19T15:09:45.498Z,30.35
2023-01-19T15:12:16.591Z,31.05
2023-01-19T15:14:44.928Z,27.38
2023-01-19T15:17:17.519Z,30.48
2023-01-19T15:19:44.477Z,30.42
2023-01-19T15:22:12.379Z,31.75
2023-01-19T15:24:41.213Z,30.40
2023-01-19T15:27:11.014Z,35.30
2023-01-19T15:29:39.140Z,29.20
2023-01-19T15:32:09.829Z,27.23
2023-01-19T15:34:36.763Z,30.92
2023-01-19T15:37:03.714Z,24.38
2023-01-19T15:39:30.655Z,27.33
2023-01-19T15:42:00.673Z,26.30
2023-01-19T15:44:27.851Z,27.60
2023-01-19T15:46:54.923Z,30.58
2023-01-19T15:49:21.835Z,28.92
2023-01-19T15:51:48.934Z,34.92
2023-01-19T15:54:17.530Z,30.27
2023-01-19T15:56:44.540Z,24.33
2023-01-19T15:59:12.827Z,24.45
2023-01-19T16:01:40.306Z,28.30
2023-01-19T16:04:08.649Z,26.48
2023-01-19T16:06:35.670Z,25.52
2023-01-19T16:09:02.761Z,28.65
2023-01-19T16:11:31.395Z,27.15
2023-01-19T16:13:58.722Z,26.35
2023-01-19T16:16:27.238Z,27.58
2023-01-19T16:18:54.346Z,29.00
2023-01-19T16:21:21.544Z,30.85
2023-01-19T16:23:48.504Z,24.65
2023-01-19T16:26:27.432Z,27.63
2023-01-19T16:28:57.224Z,30.17
2023-01-19T16:31:26.236Z,28.75
2023-01-19T16:33:53.398Z,28.15
2023-01-19T16:36:26.754Z,27.20
2023-01-19T16:38:54.253Z,26.42
2023-01-19T16:41:21.416Z,28.65
2023-01-19T16:43:52.433Z,18.67
2023-01-19T16:46:21.918Z,24.02
2023-01-19T16:48:50.448Z,25.45
2023-01-19T16:51:17.723Z,22.42
2023-01-19T16:53:45.129Z,29.70
2023-01-19T16:56:14.031Z,28.42
2023-01-19T16:58:41.000Z,27.77
2023-01-19T17:01:10.464Z,32.55
2023-01-19T17:03:38.235Z,27.27
2023-01-19T17:06:08.498Z,21.50
2023-01-19T17:08:36.179Z,30.50
2023-01-19T17:11:09.574Z,27.55
2023-01-19T17:13:36.579Z,25.08
2023-01-19T17:16:04.959Z,27.75
2023-01-19T17:18:36.211Z,27.05
2023-01-19T17:21:04.931Z,27.08
2023-01-19T17:23:34.434Z,28.10
2023-01-19T17:26:01.990Z,27.85
2023-01-19T17:28:28.894Z,27.70
2023-01-19T17:30:56.125Z,29.58
2023-01-19T17:33:24.498Z,30.30
2023-01-19T17:35:51.523Z,31.02
2023-01-19T17:38:18.488Z,32.42
2023-01-19T17:40:46.858Z,30.20
2023-01-19T17:43:13.835Z,30.85
2023-01-19T17:45:40.801Z,34.67
2023-01-19T17:48:07.950Z,36.08
2023-01-19T17:50:34.960Z,31.85
2023-01-19T17:53:01.950Z,31.90
2023-01-19T17:55:28.897Z,30.63
2023-01-19T17:57:59.629Z,33.63
2023-01-19T18:00:27.405Z,37.33
2023-01-19T18:02:54.460Z,32.53
2023-01-19T18:05:23.114Z,37.95
2023-01-19T18:07:50.105Z,33.35
2023-01-19T18:10:17.516Z,37.38
2023-01-19T18:12:44.527Z,37.28
2023-01-19T18:15:14.832Z,36.08
2023-01-19T18:17:42.978Z,41.58
2023-01-19T18:20:11.973Z,43.80
2023-01-19T18:22:39.032Z,39.60
2023-01-19T18:25:06.562Z,40.90
2023-01-19T18:27:33.505Z,48.42
2023-01-19T18:30:00.531Z,44.20
2023-01-19T18:32:29.209Z,47.63
2023-01-19T18:34:56.141Z,48.25
2023-01-19T18:37:23.133Z,46.10
2023-01-19T18:39:50.219Z,44.35
2023-01-19T18:42:17.332Z,46.42
2023-01-19T18:44:44.282Z,43.47
2023-01-19T18:47:11.211Z,44.50
2023-01-19T18:49:39.559Z,46.00
2023-01-19T18:52:06.588Z,41.67
2023-01-19T18:54:33.594Z,41.85
2023-01-19T18:57:00.850Z,46.08
2023-01-19T18:59:27.825Z,44.15
2023-01-19T19:01:54.975Z,45.90
2023-01-19T19:04:21.896Z,44.67
2023-01-19T19:06:50.179Z,47.58
2023-01-19T19:09:17.022Z,48.55
2023-01-19T19:11:43.981Z,48.33
2023-01-19T19:14:10.934Z,47.10
2023-01-19T19:16:39.531Z,48.20
2023-01-19T19:19:06.506Z,52.92
2023-01-19T19:21:33.421Z,54.75
2023-01-19T19:24:01.705Z,54.28
2023-01-19T19:26:29.003Z,55.92
2023-01-19T19:28:56.471Z,52.72
2023-01-19T19:31:24.059Z,50.50
2023-01-19T19:33:51.549Z,52.22
2023-01-19T19:36:19.392Z,55.95
2023-01-19T19:38:46.514Z,56.40
2023-01-19T19:41:16.867Z,52.03
2023-01-19T19:43:43.804Z,51.42
2023-01-19T19:46:12.085Z,49.88
2023-01-19T19:48:39.651Z,46.95
2023-01-19T19:51:17.594Z,49.47
2023-01-19T19:53:46.091Z,46.53
2023-01-19T19:56:14.543Z,48.15
2023-01-19T19:58:42.649Z,49.85
2023-01-19T20:01:10.851Z,50.85
2023-01-19T20:03:37.986Z,45.78
2023-01-19T20:06:06.667Z,47.80
2023-01-19T20:08:33.936Z,53.63
2023-01-19T20:11:05.190Z,47.63
2023-01-19T20:13:34.275Z,50.20
2023-01-19T20:16:02.441Z,49.40
2023-01-19T20:18:29.656Z,52.55
2023-01-19T20:20:56.579Z,47.75
2023-01-19T20:23:23.543Z,50.45
2023-01-19T20:25:50.466Z,51.45
2023-01-19T20:28:17.410Z,46.97
2023-01-19T20:30:45.699Z,49.17
2023-01-19T20:33:12.637Z,48.50
2023-01-19T20:35:39.556Z,42.85
2023-01-19T20:38:06.479Z,47.60
2023-01-19T20:40:33.493Z,43.75
2023-01-19T20:43:00.457Z,47.35
2023-01-19T20:45:27.475Z,46.55
2023-01-19T20:47:55.829Z,46.90
2023-01-19T20:50:22.728Z,48.40
2023-01-19T20:52:49.763Z,50.25
2023-01-19T20:55:16.771Z,55.97
2023-01-19T20:57:43.679Z,47.20
2023-01-19T21:00:12.738Z,49.15
2023-01-19T21:02:39.675Z,61.05
2023-01-19T21:05:09.267Z,58.30
2023-01-19T21:07:36.231Z,54.17
2023-01-19T21:10:03.482Z,58.33
2023-01-19T21:12:30.499Z,53.05
2023-01-19T21:14:57.467Z,52.33
2023-01-19T21:17:24.401Z,56.13
2023-01-19T21:19:51.344Z,53.53
2023-01-19T21:22:19.634Z,52.35
2023-01-19T21:24:47.138Z,55.63
2023-01-19T21:27:14.108Z,49.58
2023-01-19T21:29:41.079Z,50.22
2023-01-19T21:32:08.052Z,54.90
2023-01-19T21:34:35.105Z,54.17
2023-01-19T21:37:02.058Z,53.47
2023-01-19T21:39:30.368Z,54.83
2023-01-19T21:41:57.284Z,54.55
2023-01-19T21:44:24.236Z,58.33
2023-01-19T21:46:51.185Z,55.20
2023-01-19T21:49:19.988Z,52.45
2023-01-19T21:51:48.091Z,57.17
2023-01-19T21:54:15.203Z,45.28
2023-01-19T21:56:43.597Z,49.13
2023-01-19T21:59:13.143Z,51.03
2023-01-19T22:01:40.680Z,48.38
2023-01-19T22:04:07.726Z,52.92
2023-01-19T22:06:34.911Z,48.65
2023-01-19T22:09:02.071Z,47.25
2023-01-19T22:11:29.079Z,50.63
2023-01-19T22:13:57.587Z,50.55
2023-01-19T22:16:24.609Z,50.00
2023-01-19T22:18:53.218Z,49.03
2023-01-19T22:21:21.950Z,46.22
2023-01-19T22:23:49.276Z,50.30
2023-01-19T22:26:16.830Z,53.90
2023-01-19T22:28:43.879Z,52.83
2023-01-19T22:31:14.018Z,46.17
2023-01-19T22:33:42.043Z,43.33
2023-01-19T22:36:14.872Z,46.72
2023-01-19T22:38:43.350Z,43.78
2023-01-19T22:41:14.797Z,44.20
2023-01-19T22:43:41.852Z,52.17
2023-01-19T22:46:09.045Z,50.30
2023-01-19T22:48:37.410Z,47.40
2023-01-19T22:51:04.645Z,49.35
2023-01-19T22:53:32.249Z,47.75
2023-01-19T22:55:59.374Z,46.33
2023-01-19T22:58:26.302Z,47.47
2023-01-19T23:00:53.278Z,47.90
2023-01-19T23:03:20.292Z,47.92
2023-01-19T23:05:48.667Z,41.40
2023-01-19T23:08:15.601Z,50.65
2023-01-19T23:10:42.713Z,47.60
2023-01-19T23:13:09.665Z,49.22
2023-01-19T23:15:36.578Z,52.53
2023-01-19T23:18:03.775Z,48.95
2023-01-19T23:20:30.717Z,56.15
2023-01-19T23:22:59.100Z,56.67
2023-01-19T23:25:26.049Z,59.38
2023-01-19T23:27:53.000Z,58.15
2023-01-19T23:30:20.333Z,62.25
2023-01-19T23:32:48.234Z,62.70
2023-01-19T23:35:15.951Z,68.55
2023-01-19T23:37:43.123Z,63.78
2023-01-19T23:40:12.506Z,68.65
2023-01-19T23:42:39.507Z,65.82
2023-01-19T23:45:07.910Z,64.55
2023-01-19T23:47:35.614Z,71.82
2023-01-19T23:50:03.364Z,57.47
2023-01-19T23:52:31.211Z,63.25
2023-01-19T23:54:58.266Z,56.88
2023-01-19T23:57:26.558Z,63.50
2023-01-19T23:59:53.551Z,66.55
